RJCW/WKJ METAR and TAF weather

Enter ICAO airport designator
Station Type Date Time Source
RJCW METAR 2021/04/17 01:00 UTC NOAA

RJCW 170100Z 18018KT 9999 FEW030 BKN060 BKN/// 12/08 Q1016


Station Type Date Time Source
RJCW Decoded METAR 2021/04/17 01:00 UTC NOAA

Wakkanai Airport, Japan (RJCW) 45-24N 141-48E 11M
Apr 16, 2021 - 09:00 PM EDT / 2021.04.17 0100 UTC
Wind: from the S (180 degrees) at 21 MPH (18 KT):0
Visibility: greater than 7 mile(s):0
Sky conditions: mostly cloudy
Temperature: 53 F (12 C)
Dew Point: 46 F (8 C)
Relative Humidity: 76%
Pressure (altimeter): 30.00 in. Hg (1016 hPa)
ob: RJCW 170100Z 18018KT 9999 FEW030 BKN060 BKN/// 12/08 Q1016
cycle: 1

Station Type Date Time Source
RJCW TAF UTC NOAA

Error!

Example: see airport list